Time;durP1;ratioP1;P1;durP2;ratioP2;P2;SDS_P1;SDS_P2;PMS_P1;PMS_P2;Temp;Humidity;BMP_temperature;BMP_pressure;BME280_temperature;BME280_humidity;BME280_pressure;Samples;Min_cycle;Max_cycle;Signal;HPM_P1;HPM_P2
2022/05/12 00:00:23;;;;;;;8.40;1.55;;;10.40;99.90;;;;;;4956759;29;20051;-82
2022/05/12 00:02:49;;;;;;;9.02;1.73;;;10.30;99.90;;;;;;4939860;29;20044;-82
2022/05/12 00:05:15;;;;;;;5.13;1.33;;;10.30;99.90;;;;;;4939477;29;20051;-82
2022/05/12 00:07:41;;;;;;;10.30;1.30;;;10.20;99.90;;;;;;4939606;29;20083;-82
2022/05/12 00:10:08;;;;;;;9.45;1.67;;;10.40;99.90;;;;;;4956637;29;20126;-82
2022/05/12 00:12:35;;;;;;;9.88;1.95;;;10.20;99.90;;;;;;4939595;29;20054;-82
2022/05/12 00:15:04;;;;;;;6.50;1.55;;;10.20;99.90;;;;;;4955820;28;20047;-82
2022/05/12 00:17:29;;;;;;;5.90;1.45;;;10.20;99.90;;;;;;4956687;29;20057;-82
2022/05/12 00:19:55;;;;;;;9.40;1.50;;;10.10;99.90;;;;;;4939530;29;20047;-82
2022/05/12 00:22:21;;;;;;;7.72;1.35;;;10.10;99.90;;;;;;4939292;29;20059;-82
2022/05/12 00:24:46;;;;;;;7.72;1.45;;;10.10;99.90;;;;;;4939531;29;20150;-82
2022/05/12 00:27:12;;;;;;;6.32;1.70;;;10.10;99.90;;;;;;4956521;29;20397;-82
2022/05/12 00:29:37;;;;;;;6.40;1.20;;;10.00;99.90;;;;;;4939498;29;20048;-82
2022/05/12 00:32:03;;;;;;;7.75;1.50;;;10.00;99.90;;;;;;4956413;29;20074;-82
2022/05/12 00:34:29;;;;;;;6.78;1.30;;;10.00;99.90;;;;;;4939500;29;20051;-81
2022/05/12 00:36:55;;;;;;;6.57;1.67;;;10.00;99.90;;;;;;4939183;29;20141;-82
2022/05/12 00:39:20;;;;;;;5.68;1.40;;;9.90;99.90;;;;;;4956055;29;20113;-81
2022/05/12 00:41:46;;;;;;;5.00;1.50;;;9.90;99.90;;;;;;4922478;29;20146;-82
2022/05/12 00:44:15;;;;;;;5.63;1.52;;;9.80;99.90;;;;;;4939251;29;20051;-82
2022/05/12 00:46:42;;;;;;;4.35;1.27;;;10.00;99.90;;;;;;4938720;29;20051;-81
2022/05/12 00:49:13;;;;;;;8.20;1.33;;;9.80;99.90;;;;;;4939120;29;20054;-82
2022/05/12 00:52:06;;;;;;;5.25;1.52;;;9.70;99.90;;;;;;4923237;29;20054;-82
2022/05/12 00:54:53;;;;;;;5.05;1.25;;;9.60;99.90;;;;;;4954721;28;20055;-82
2022/05/12 00:57:40;;;;;;;4.68;1.58;;;9.60;99.90;;;;;;4939057;29;20063;-81
2022/05/12 01:00:09;;;;;;;7.13;1.33;;;9.50;99.90;;;;;;4955791;29;20043;-82
2022/05/12 01:02:36;;;;;;;6.30;1.30;;;9.50;99.90;;;;;;4955623;29;20559;-82
2022/05/12 01:05:03;;;;;;;7.35;1.80;;;9.40;99.90;;;;;;4938270;29;20485;-82
2022/05/12 01:07:29;;;;;;;7.80;1.88;;;9.40;99.90;;;;;;4938850;29;20054;-81
2022/05/12 01:09:55;;;;;;;4.85;1.33;;;9.30;99.90;;;;;;4938718;29;20054;-82
2022/05/12 01:12:22;;;;;;;6.15;1.45;;;9.30;99.90;;;;;;4922413;29;20059;-82
2022/05/12 01:14:48;;;;;;;6.50;1.42;;;9.20;99.90;;;;;;4955358;29;20047;-83
2022/05/12 01:17:14;;;;;;;6.03;1.70;;;9.20;99.90;;;;;;4938446;29;20138;-82
2022/05/12 01:19:41;;;;;;;6.97;1.70;;;9.20;99.90;;;;;;4938286;29;20475;-82
2022/05/12 01:22:11;;;;;;;6.00;1.27;;;9.30;99.90;;;;;;4938033;29;20493;-81
2022/05/12 01:24:40;;;;;;;5.93;1.60;;;9.10;99.90;;;;;;4938035;29;20134;-82
2022/05/12 01:27:19;;;;;;;6.22;1.92;;;9.10;99.90;;;;;;4938379;29;20051;-83
2022/05/12 01:29:52;;;;;;;6.05;2.15;;;9.10;99.90;;;;;;4938074;29;20113;-83
2022/05/12 01:32:20;;;;;;;5.43;1.48;;;9.10;99.90;;;;;;4937944;29;20062;-85
2022/05/12 01:34:46;;;;;;;7.72;1.40;;;9.10;99.90;;;;;;4954039;29;20102;-82
2022/05/12 01:37:12;;;;;;;8.15;1.85;;;9.30;99.90;;;;;;4938061;29;20043;-82
2022/05/12 01:39:38;;;;;;;6.60;1.50;;;9.10;99.90;;;;;;4937963;29;20059;-83
2022/05/12 01:42:05;;;;;;;5.00;1.80;;;9.00;99.90;;;;;;4937780;29;20047;-82
2022/05/12 01:44:31;;;;;;;3.58;1.40;;;9.00;99.90;;;;;;4937904;29;20043;-81
2022/05/12 01:46:57;;;;;;;5.55;1.65;;;9.00;99.90;;;;;;4954493;29;20043;-88
2022/05/12 01:49:23;;;;;;;5.65;1.67;;;8.90;99.90;;;;;;4954999;29;20090;-82
2022/05/12 01:51:57;;;;;;;3.60;1.55;;;8.90;99.90;;;;;;4937963;29;20039;-82
2022/05/12 01:54:24;;;;;;;2.85;1.30;;;8.90;99.90;;;;;;4937842;29;20051;-81
2022/05/12 01:56:50;;;;;;;10.00;1.77;;;9.10;99.90;;;;;;4937592;29;20047;-82
2022/05/12 01:59:18;;;;;;;4.10;1.52;;;8.90;99.90;;;;;;4937768;29;20196;-82
2022/05/12 02:01:45;;;;;;;4.88;1.60;;;8.90;99.90;;;;;;4937581;29;20051;-81
2022/05/12 02:04:11;;;;;;;6.65;1.83;;;9.00;99.90;;;;;;4937469;29;20063;-82
2022/05/12 02:06:36;;;;;;;6.85;2.17;;;8.80;99.90;;;;;;4954596;29;20054;-82
2022/05/12 02:09:04;;;;;;;5.70;1.70;;;8.80;99.90;;;;;;4954656;29;20532;-89
2022/05/12 02:11:30;;;;;;;6.05;1.80;;;8.70;99.90;;;;;;4954537;29;20053;-82
2022/05/12 02:13:55;;;;;;;6.68;1.77;;;8.70;99.90;;;;;;4937789;29;20544;-82
2022/05/12 02:16:22;;;;;;;10.75;1.83;;;8.60;99.90;;;;;;4937228;29;20130;-82
2022/05/12 02:18:48;;;;;;;6.50;2.05;;;8.60;99.90;;;;;;4937720;29;20167;-82
2022/05/12 02:21:14;;;;;;;7.20;1.63;;;8.70;99.90;;;;;;4937756;29;20488;-81
2022/05/12 02:23:40;;;;;;;4.30;1.88;;;8.60;99.90;;;;;;4937235;29;20130;-81
2022/05/12 02:26:05;;;;;;;7.47;1.75;;;8.50;99.90;;;;;;4921495;29;20062;-82
2022/05/12 02:28:31;;;;;;;8.18;2.33;;;8.50;99.90;;;;;;4921686;29;20106;-81
2022/05/12 02:30:57;;;;;;;10.27;2.17;;;8.80;99.90;;;;;;4936989;29;20047;-82
2022/05/12 02:33:22;;;;;;;8.48;2.28;;;8.40;99.90;;;;;;4921773;29;20062;-81
2022/05/12 02:35:48;;;;;;;7.38;1.90;;;8.40;99.90;;;;;;4937309;29;20047;-82
2022/05/12 02:38:14;;;;;;;10.63;2.50;;;8.40;99.90;;;;;;4955717;28;20089;-81
2022/05/12 02:40:40;;;;;;;10.27;2.63;;;8.40;99.90;;;;;;4941332;29;20051;-81
2022/05/12 02:43:23;;;;;;;9.25;2.17;;;8.40;99.90;;;;;;4941258;29;20051;-81
2022/05/12 02:45:54;;;;;;;12.48;2.47;;;8.40;99.90;;;;;;4940644;29;20055;-81
2022/05/12 02:48:22;;;;;;;9.20;2.30;;;8.40;99.90;;;;;;4925067;29;20062;-82
2022/05/12 02:50:48;;;;;;;8.55;2.58;;;8.50;99.90;;;;;;4958139;29;20155;-82
2022/05/12 02:53:14;;;;;;;11.25;2.90;;;8.50;99.90;;;;;;4941114;29;20059;-82
2022/05/12 02:55:40;;;;;;;13.43;2.20;;;8.60;99.90;;;;;;4941068;29;20059;-81
2022/05/12 02:58:06;;;;;;;5.20;2.05;;;8.50;99.90;;;;;;4940972;29;20047;-81
2022/05/12 03:00:33;;;;;;;9.75;2.17;;;8.50;99.90;;;;;;4940522;29;20497;-81
2022/05/12 03:02:59;;;;;;;12.60;2.53;;;8.60;99.90;;;;;;4958011;29;20055;-83
2022/05/12 03:05:26;;;;;;;8.10;1.90;;;8.60;99.90;;;;;;4940715;29;20063;-81
2022/05/12 03:07:52;;;;;;;11.00;2.60;;;8.60;99.90;;;;;;4940786;29;20142;-81
2022/05/12 03:10:18;;;;;;;11.23;2.38;;;8.60;99.90;;;;;;4957820;29;20142;-81
2022/05/12 03:12:44;;;;;;;19.55;2.90;;;8.90;99.90;;;;;;4940720;29;20544;-81
2022/05/12 03:15:12;;;;;;;9.88;2.28;;;8.90;99.90;;;;;;4940388;29;20139;-82
2022/05/12 03:17:39;;;;;;;14.77;2.80;;;8.60;99.90;;;;;;4940760;29;20044;-81
2022/05/12 03:20:09;;;;;;;11.45;2.70;;;8.50;99.90;;;;;;4957762;29;20090;-82
2022/05/12 03:22:36;;;;;;;12.43;2.80;;;8.50;99.90;;;;;;4940367;29;20047;-83
2022/05/12 03:25:03;;;;;;;11.55;2.90;;;8.50;99.90;;;;;;4940393;29;20046;-82
2022/05/12 03:27:30;;;;;;;14.93;3.47;;;8.50;99.90;;;;;;4940301;29;20130;-82
2022/05/12 03:29:55;;;;;;;13.35;3.70;;;8.50;99.90;;;;;;4940128;29;20054;-82
2022/05/12 03:32:21;;;;;;;14.30;3.25;;;8.50;99.90;;;;;;4940283;29;20047;-82
2022/05/12 03:34:47;;;;;;;12.55;3.05;;;8.60;99.90;;;;;;4940047;29;20392;-81
2022/05/12 03:37:13;;;;;;;8.35;2.92;;;8.50;99.90;;;;;;4939993;29;20496;-82
2022/05/12 03:39:39;;;;;;;12.45;3.03;;;8.40;99.90;;;;;;4940198;29;20125;-81
2022/05/12 03:42:10;;;;;;;16.02;3.60;;;8.40;99.90;;;;;;4940358;29;20047;-82
2022/05/12 03:44:54;;;;;;;11.27;3.55;;;8.40;99.90;;;;;;4939948;29;20073;-82
2022/05/12 03:47:21;;;;;;;18.65;3.67;;;8.40;99.90;;;;;;4940134;29;20055;-82
2022/05/12 03:49:52;;;;;;;16.75;3.35;;;8.40;99.90;;;;;;4938956;29;20055;-81
2022/05/12 03:52:18;;;;;;;;;;;8.40;99.90;;;;;;4940517;29;20153;-82
2022/05/12 03:54:44;;;;;;;12.00;3.42;;;8.50;99.90;;;;;;4939950;29;19973;-81
2022/05/12 03:57:11;;;;;;;14.25;3.67;;;8.50;99.90;;;;;;4939746;29;20051;-82
2022/05/12 03:59:39;;;;;;;12.52;3.25;;;8.50;99.90;;;;;;4940083;29;20055;-82
2022/05/12 04:02:09;;;;;;;12.93;3.30;;;8.50;99.90;;;;;;4939894;29;20070;-81
2022/05/12 04:04:35;;;;;;;20.13;4.20;;;8.40;99.90;;;;;;4939655;29;20055;-82
2022/05/12 04:07:01;;;;;;;17.33;3.70;;;8.40;99.90;;;;;;4956975;29;20048;-82
2022/05/12 04:09:28;;;;;;;17.38;4.68;;;8.40;99.90;;;;;;4939653;29;20050;-82
2022/05/12 04:11:53;;;;;;;15.20;4.30;;;8.40;99.90;;;;;;4939403;29;20433;-82
2022/05/12 04:14:19;;;;;;;14.10;4.57;;;8.50;99.90;;;;;;4956769;29;20054;-81
2022/05/12 04:16:45;;;;;;;19.73;5.63;;;8.70;99.90;;;;;;4939644;29;20089;-82
2022/05/12 04:19:14;;;;;;;18.23;5.20;;;8.50;99.90;;;;;;4939651;29;20051;-81
2022/05/12 04:21:40;;;;;;;20.95;5.85;;;8.50;99.90;;;;;;4923213;29;20066;-82
2022/05/12 04:24:07;;;;;;;15.88;5.93;;;8.60;99.90;;;;;;4956428;29;20047;-82
2022/05/12 04:26:34;;;;;;;22.83;6.38;;;8.60;99.90;;;;;;4939018;29;20042;-85
2022/05/12 04:29:00;;;;;;;20.92;6.45;;;8.60;99.90;;;;;;4939350;29;20497;-83
2022/05/12 04:31:25;;;;;;;19.92;7.05;;;8.60;99.90;;;;;;4939623;29;20070;-82
2022/05/12 04:36:36;;;;;;;27.48;7.85;;;8.70;99.90;;;;;;4939145;29;20051;-83
2022/05/12 04:39:03;;;;;;;22.85;8.63;;;8.70;99.90;;;;;;4939187;29;20043;-82
2022/05/12 04:41:29;;;;;;;19.92;8.45;;;8.70;99.90;;;;;;4939369;29;20067;-82
2022/05/12 04:43:55;;;;;;;19.25;7.68;;;8.70;99.90;;;;;;4956379;29;20046;-81
2022/05/12 04:46:21;;;;;;;19.80;8.15;;;8.80;99.90;;;;;;4955924;29;20485;-82
2022/05/12 04:48:47;;;;;;;438.98;35.95;;;8.80;99.90;;;;;;4939012;29;20043;-81
2022/05/12 04:51:13;;;;;;;23.00;9.80;;;8.80;99.90;;;;;;4939254;29;20067;-82
2022/05/12 04:53:39;;;;;;;23.13;9.18;;;8.90;99.90;;;;;;4923128;29;20043;-81
2022/05/12 04:56:05;;;;;;;18.52;8.48;;;9.00;99.90;;;;;;4938564;29;20051;-83
2022/05/12 04:58:30;;;;;;;23.85;8.43;;;9.00;99.90;;;;;;4938946;29;20078;-81
2022/05/12 05:00:56;;;;;;;26.85;8.98;;;9.00;99.90;;;;;;4938530;29;20054;-82
2022/05/12 05:03:21;;;;;;;18.83;8.50;;;9.10;99.90;;;;;;4954806;29;20051;-82
2022/05/12 05:05:49;;;;;;;14.77;7.50;;;9.10;99.90;;;;;;4938247;29;20559;-82
2022/05/12 05:08:17;;;;;;;21.50;8.05;;;9.10;99.90;;;;;;4955159;29;20055;-81
2022/05/12 05:10:43;;;;;;;299.20;21.23;;;9.20;99.90;;;;;;4938426;29;20097;-81
2022/05/12 05:13:09;;;;;;;20.00;8.15;;;9.30;99.90;;;;;;4938756;29;20130;-81
2022/05/12 05:15:35;;;;;;;21.30;8.77;;;9.40;99.90;;;;;;4938457;29;20058;-81
2022/05/12 05:18:01;;;;;;;17.73;8.25;;;9.60;99.90;;;;;;4955606;29;20053;-81
2022/05/12 05:20:30;;;;;;;17.08;7.85;;;9.50;99.90;;;;;;4938449;29;20075;-82
2022/05/12 05:22:55;;;;;;;20.83;7.82;;;9.60;99.90;;;;;;4938568;29;20051;-82
2022/05/12 05:25:21;;;;;;;18.23;7.88;;;9.60;99.90;;;;;;4922167;29;20106;-82
2022/05/12 05:27:48;;;;;;;19.80;8.23;;;9.70;99.90;;;;;;4938457;29;20054;-82
2022/05/12 05:30:22;;;;;;;20.63;8.57;;;9.70;99.90;;;;;;4938422;29;20504;-81
2022/05/12 05:32:48;;;;;;;22.65;7.78;;;10.00;99.90;;;;;;4938151;29;20394;-82
2022/05/12 05:35:15;;;;;;;19.17;7.93;;;10.20;99.90;;;;;;4938361;29;20406;-82
2022/05/12 05:37:42;;;;;;;18.55;8.32;;;9.90;99.90;;;;;;4938044;29;20047;-82
2022/05/12 05:40:13;;;;;;;21.88;8.63;;;10.10;99.90;;;;;;4954774;29;20405;-82
2022/05/12 05:42:39;;;;;;;19.50;7.43;;;10.20;99.90;;;;;;4937431;29;20051;-82
2022/05/12 05:45:10;;;;;;;23.27;9.10;;;10.30;99.90;;;;;;4937708;29;20054;-81
2022/05/12 05:47:38;;;;;;;18.38;8.38;;;10.30;99.90;;;;;;4937069;29;20505;-82
2022/05/12 05:50:07;;;;;;;19.15;9.25;;;10.50;99.90;;;;;;4938030;29;20051;-84
2022/05/12 05:55:21;;;;;;;17.30;8.45;;;10.80;99.90;;;;;;4937948;29;20058;-81
2022/05/12 05:57:58;;;;;;;24.38;9.15;;;10.70;99.90;;;;;;4937804;29;20050;-82
2022/05/12 06:00:24;;;;;;;21.52;8.90;;;10.80;99.90;;;;;;4937898;29;20051;-81
2022/05/12 06:02:50;;;;;;;16.98;8.77;;;10.90;99.90;;;;;;4937719;29;20098;-81
2022/05/12 06:05:17;;;;;;;20.92;9.00;;;10.90;99.90;;;;;;4937061;29;20055;-83
2022/05/12 06:07:44;;;;;;;21.17;8.68;;;11.00;99.90;;;;;;4937879;29;20090;-81
2022/05/12 06:10:10;;;;;;;18.80;8.30;;;11.10;99.90;;;;;;4937651;29;20094;-81
2022/05/12 06:12:37;;;;;;;20.13;8.50;;;11.20;99.90;;;;;;4936754;29;20051;-81
2022/05/12 06:15:04;;;;;;;22.73;7.85;;;11.50;99.90;;;;;;4937590;29;20497;-81
2022/05/12 06:17:29;;;;;;;19.88;8.52;;;11.30;99.90;;;;;;4937313;29;20062;-84
2022/05/12 06:19:55;;;;;;;22.15;8.13;;;11.40;99.90;;;;;;4937374;29;20051;-82
2022/05/12 06:22:21;;;;;;;14.85;7.63;;;11.70;99.90;;;;;;4937625;29;20047;-82
2022/05/12 06:24:48;;;;;;;20.15;8.02;;;11.60;99.90;;;;;;4921657;29;20405;-81
2022/05/12 06:27:16;;;;;;;16.00;7.57;;;11.70;99.90;;;;;;4937685;29;20047;-81
2022/05/12 06:29:44;;;;;;;13.80;6.22;;;12.00;99.90;;;;;;4937364;29;20051;-80
2022/05/12 06:32:10;;;;;;;14.00;5.72;;;12.60;99.90;;;;;;4954318;29;20396;-82
2022/05/12 06:34:36;;;;;;;15.90;5.47;;;13.10;99.90;;;;;;4953067;29;20051;-84
2022/05/12 06:37:04;;;;;;;13.52;4.88;;;13.50;99.90;;;;;;4954217;29;20046;-85
2022/05/12 06:39:30;;;;;;;14.85;4.97;;;13.60;99.90;;;;;;4937488;29;20058;-82
2022/05/12 06:41:56;;;;;;;13.27;4.80;;;13.70;99.90;;;;;;4937411;29;20095;-82
2022/05/12 06:44:22;;;;;;;12.05;4.50;;;13.60;99.90;;;;;;4937301;29;20051;-81
2022/05/12 06:46:48;;;;;;;13.15;3.60;;;13.90;99.90;;;;;;4936863;29;20047;-82
2022/05/12 06:49:14;;;;;;;13.05;3.88;;;13.80;99.90;;;;;;4921355;29;20142;-82
2022/05/12 06:51:40;;;;;;;12.50;3.97;;;13.90;99.90;;;;;;4954004;29;20137;-83
2022/05/12 06:54:06;;;;;;;13.73;3.38;;;14.00;99.90;;;;;;4954372;29;20473;-82
2022/05/12 06:56:32;;;;;;;13.32;3.63;;;14.30;99.90;;;;;;4937451;29;20074;-82
2022/05/12 06:58:58;;;;;;;9.13;3.08;;;14.50;99.90;;;;;;4921171;29;20067;-84
2022/05/12 07:01:24;;;;;;;10.57;3.40;;;14.70;99.90;;;;;;4954161;29;20051;-82
2022/05/12 07:03:50;;;;;;;12.00;3.63;;;15.00;99.90;;;;;;4921078;29;20142;-83
2022/05/12 07:06:16;;;;;;;10.43;2.90;;;15.40;99.90;;;;;;4953803;29;20051;-83
2022/05/12 07:08:44;;;;;;;11.80;2.90;;;16.20;99.90;;;;;;4936915;29;20051;-84
2022/05/12 07:11:11;;;;;;;8.30;2.60;;;17.10;99.90;;;;;;4936822;29;20066;-84
2022/05/12 07:13:36;;;;;;;7.88;2.90;;;17.50;99.90;;;;;;4921029;29;20529;-83
2022/05/12 07:16:04;;;;;;;10.80;2.60;;;17.90;99.90;;;;;;4937039;29;20098;-83
2022/05/12 07:18:30;;;;;;;8.05;2.63;;;18.20;99.90;;;;;;4936781;29;20497;-83
2022/05/12 07:26:36;;;;;;;7.97;2.15;;;19.20;99.90;;;;;;4940331;29;20493;-83
2022/05/12 07:29:09;;;;;;;6.45;2.70;;;19.30;99.90;;;;;;4924724;29;20408;-85
2022/05/12 07:31:35;;;;;;;10.23;2.72;;;19.00;99.90;;;;;;4940187;29;20062;-83
2022/05/12 07:34:00;;;;;;;7.35;2.88;;;18.60;99.90;;;;;;4940574;29;20051;-83
2022/05/12 07:36:32;;;;;;;8.38;2.78;;;18.50;99.90;;;;;;4940423;29;20051;-83
2022/05/12 07:38:58;;;;;;;7.60;2.40;;;18.80;99.90;;;;;;4940475;29;20544;-83
2022/05/12 07:41:24;;;;;;;6.80;2.00;;;19.10;99.90;;;;;;4940110;29;20055;-83
2022/05/12 07:43:51;;;;;;;11.05;2.45;;;19.20;99.90;;;;;;4940113;29;20047;-84
2022/05/12 07:46:21;;;;;;;7.32;2.60;;;18.70;99.90;;;;;;4939726;29;20055;-84
2022/05/12 07:48:47;;;;;;;8.00;2.65;;;18.20;99.90;;;;;;4939979;29;20504;-84
2022/05/12 07:51:13;;;;;;;7.63;2.40;;;17.80;99.90;;;;;;4940231;29;20047;-84
2022/05/12 07:53:39;;;;;;;3.63;2.22;;;17.90;99.90;;;;;;4940010;29;20062;-84
2022/05/12 07:56:05;;;;;;;11.50;2.47;;;18.20;99.90;;;;;;4940114;29;20058;-83
2022/05/12 07:58:32;;;;;;;9.45;2.90;;;18.50;99.90;;;;;;4940034;29;20087;-86
2022/05/12 08:00:57;;;;;;;7.88;2.13;;;19.00;99.90;;;;;;4939802;29;20055;-84
2022/05/12 08:03:26;;;;;;;6.25;2.10;;;19.60;99.90;;;;;;4940068;29;20059;-84
2022/05/12 08:05:53;;;;;;;7.95;2.28;;;19.80;99.90;;;;;;4939596;29;20137;-83
2022/05/12 08:08:22;;;;;;;8.65;2.33;;;20.50;99.90;;;;;;4939685;29;20054;-84
2022/05/12 08:10:48;;;;;;;6.45;2.03;;;21.10;99.90;;;;;;4938885;29;20059;-84
2022/05/12 08:13:16;;;;;;;6.22;1.92;;;21.50;99.90;;;;;;4923865;29;20066;-84
2022/05/12 08:15:43;;;;;;;4.63;2.00;;;21.90;97.80;;;;;;4939457;29;20400;-84
2022/05/12 08:18:08;;;;;;;7.82;2.55;;;22.50;95.10;;;;;;4939699;29;20039;-84
2022/05/12 08:20:35;;;;;;;6.40;1.75;;;23.10;91.60;;;;;;4939717;29;20051;-84
2022/05/12 08:23:01;;;;;;;9.25;2.25;;;23.30;87.20;;;;;;4956467;29;20500;-83
2022/05/12 08:25:26;;;;;;;9.80;2.55;;;22.50;89.00;;;;;;4939381;29;20130;-83
2022/05/12 08:27:54;;;;;;;10.57;2.30;;;21.20;97.20;;;;;;4939253;29;20444;-83
2022/05/12 08:30:20;;;;;;;6.28;1.92;;;20.90;99.60;;;;;;4939177;29;20087;-84
2022/05/12 08:32:46;;;;;;;8.00;1.83;;;21.40;96.10;;;;;;4939664;29;20047;-84
2022/05/12 08:35:13;;;;;;;5.72;1.67;;;22.10;92.30;;;;;;4955929;28;20035;-83
2022/05/12 08:37:39;;;;;;;8.60;2.10;;;22.60;86.50;;;;;;4939026;29;20087;-83
2022/05/12 08:40:07;;;;;;;5.68;1.83;;;22.30;82.30;;;;;;4939229;29;20047;-84
2022/05/12 08:42:38;;;;;;;6.35;1.48;;;21.80;86.80;;;;;;4939217;29;20131;-87
2022/05/12 08:45:06;;;;;;;7.10;1.60;;;21.60;85.40;;;;;;4939001;29;20051;-84
2022/05/12 08:47:47;;;;;;;6.32;1.55;;;21.30;90.40;;;;;;4939008;29;20075;-85
2022/05/12 08:50:26;;;;;;;5.93;1.27;;;21.80;86.70;;;;;;4956037;29;20057;-85
2022/05/12 08:53:01;;;;;;;5.63;1.90;;;22.70;78.70;;;;;;4938906;29;20082;-84
2022/05/12 08:55:30;;;;;;;5.88;1.60;;;23.40;67.30;;;;;;4938851;29;20055;-84
2022/05/12 08:58:08;;;;;;;6.43;1.67;;;23.90;61.50;;;;;;4939095;29;20085;-86
2022/05/12 09:00:40;;;;;;;6.15;1.63;;;24.00;60.80;;;;;;4938703;29;20055;-85
2022/05/12 09:03:26;;;;;;;7.07;1.52;;;24.00;60.60;;;;;;4938789;29;20087;-93
2022/05/12 09:06:21;;;;;;;4.60;1.48;;;24.00;59.30;;;;;;4954330;29;20059;-83
2022/05/12 09:09:25;;;;;;;5.82;1.30;;;24.20;55.60;;;;;;4922253;29;20146;-84
2022/05/12 09:12:04;;;;;;;5.75;1.40;;;24.70;57.30;;;;;;4938547;29;20078;-83
2022/05/12 09:14:40;;;;;;;4.78;1.33;;;25.60;54.80;;;;;;4954624;29;20062;-84
2022/05/12 09:17:07;;;;;;;4.68;1.40;;;25.70;53.20;;;;;;4954417;29;20405;-85
2022/05/12 09:19:32;;;;;;;5.03;1.50;;;25.90;53.40;;;;;;4954354;29;20047;-89
2022/05/12 09:21:58;;;;;;;7.28;1.90;;;26.00;53.60;;;;;;4938713;29;20503;-85
2022/05/12 09:24:24;;;;;;;6.00;1.50;;;26.40;52.20;;;;;;4938257;29;20091;-84
2022/05/12 09:27:05;;;;;;;6.95;1.60;;;25.90;51.40;;;;;;4953826;29;20098;-87
2022/05/12 09:29:31;;;;;;;4.38;1.48;;;25.20;54.30;;;;;;4938525;29;20086;-86
2022/05/12 09:32:26;;;;;;;5.82;1.67;;;25.40;54.10;;;;;;4954103;29;20500;-84
2022/05/12 09:35:20;;;;;;;7.90;1.60;;;25.80;51.70;;;;;;4938101;29;20146;-85
2022/05/12 09:37:47;;;;;;;3.47;1.30;;;25.70;52.60;;;;;;4938363;29;20492;-84
2022/05/12 09:40:34;;;;;;;4.75;1.45;;;26.30;50.40;;;;;;4954094;29;20054;-84
2022/05/12 09:43:17;;;;;;;5.38;1.48;;;26.90;48.10;;;;;;4921732;29;20059;-86
2022/05/12 09:45:46;;;;;;;7.03;1.73;;;26.60;48.60;;;;;;4953555;29;20050;-86
2022/05/12 09:48:25;;;;;;;6.07;1.63;;;26.90;49.70;;;;;;4954367;28;20051;-85
2022/05/12 09:50:53;;;;;;;5.35;1.60;;;26.50;47.70;;;;;;4953624;29;20079;-84
2022/05/12 09:53:29;;;;;;;3.05;1.13;;;25.90;49.90;;;;;;4953944;29;20054;-85
2022/05/12 09:56:05;;;;;;;4.30;1.13;;;25.90;48.20;;;;;;4953476;29;20121;-85
2022/05/12 09:58:41;;;;;;;4.22;1.35;;;26.50;47.60;;;;;;4953728;29;20058;-87
2022/05/12 10:01:22;;;;;;;4.88;1.70;;;27.10;46.30;;;;;;4937712;29;20498;-86
2022/05/12 10:09:32;;;;;;;4.60;1.30;;;28.00;43.10;;;;;;4937685;29;20404;-86
2022/05/12 10:12:20;;;;;;;4.22;1.40;;;28.00;42.20;;;;;;4937876;29;20509;-85
2022/05/12 10:15:00;;;;;;;5.15;1.50;;;27.60;41.90;;;;;;4937692;29;20047;-85
2022/05/12 10:17:34;;;;;;;4.82;1.10;;;27.50;43.80;;;;;;4937594;29;20512;-85
2022/05/12 10:20:08;;;;;;;8.27;1.55;;;27.80;44.10;;;;;;4937747;29;20113;-85
2022/05/12 10:22:55;;;;;;;6.00;1.63;;;27.80;43.00;;;;;;4937450;29;20043;-86
2022/05/12 10:25:57;;;;;;;4.68;1.33;;;27.40;44.10;;;;;;4937655;29;20047;-85
2022/05/12 10:28:46;;;;;;;5.13;1.33;;;27.70;43.20;;;;;;4895330;29;20404;-85
2022/05/12 10:31:23;;;;;;;5.43;1.65;;;27.90;43.40;;;;;;4895458;29;20052;-84
2022/05/12 10:34:27;;;;;;;5.53;1.20;;;28.00;43.20;;;;;;4895482;29;20117;-85
2022/05/12 10:37:29;;;;;;;7.00;1.60;;;28.30;41.40;;;;;;4824429;29;20054;-84
2022/05/12 10:40:18;;;;;;;4.00;1.17;;;27.40;42.40;;;;;;4824593;29;20072;-84
2022/05/12 10:43:13;;;;;;;6.35;1.48;;;26.80;44.90;;;;;;4824410;29;20178;-85
2022/05/12 10:46:01;;;;;;;3.28;1.20;;;27.20;43.50;;;;;;4824191;29;20058;-85
2022/05/12 10:48:34;;;;;;;2.97;1.20;;;27.70;42.80;;;;;;4824564;29;20124;-84
2022/05/12 10:51:06;;;;;;;4.03;1.38;;;28.10;42.50;;;;;;4824302;29;20401;-87
2022/05/12 10:53:34;;;;;;;4.40;1.55;;;28.60;41.50;;;;;;4824442;29;20493;-85
2022/05/12 10:56:28;;;;;;;2.85;1.10;;;28.60;40.50;;;;;;4839651;29;20053;-85
2022/05/12 10:59:15;;;;;;;2.92;1.30;;;28.60;39.40;;;;;;4825150;29;20103;-86
2022/05/12 11:01:47;;;;;;;5.47;1.60;;;28.50;39.00;;;;;;4827813;29;20462;-84
2022/05/12 11:04:19;;;;;;;4.05;1.15;;;28.50;39.20;;;;;;4833047;29;20057;-85
2022/05/12 11:06:58;;;;;;;5.03;1.10;;;28.30;37.20;;;;;;4845764;29;20063;-86
2022/05/12 11:09:39;;;;;;;3.33;1.20;;;28.10;37.70;;;;;;4845913;29;20057;-86
2022/05/12 11:12:30;;;;;;;3.75;0.90;;;28.20;39.20;;;;;;4851880;29;20053;-85
2022/05/12 11:15:23;;;;;;;3.53;1.00;;;27.90;38.50;;;;;;4957689;29;20047;-84
2022/05/12 11:18:05;;;;;;;3.17;1.25;;;27.50;38.90;;;;;;4940615;29;20130;-86
2022/05/12 11:20:39;;;;;;;3.33;1.02;;;27.80;38.00;;;;;;4924959;29;20066;-84
2022/05/12 11:23:29;;;;;;;5.70;1.13;;;27.50;38.70;;;;;;4940952;29;20047;-84
2022/05/12 11:26:09;;;;;;;3.58;0.90;;;27.40;39.20;;;;;;4940469;29;20047;-86
2022/05/12 11:31:46;;;;;;;6.20;1.20;;;26.90;39.50;;;;;;4940638;29;20551;-84
2022/05/12 11:34:19;;;;;;;2.55;1.10;;;26.70;39.90;;;;;;4940478;29;20043;-82
2022/05/12 11:36:48;;;;;;;4.40;1.35;;;26.80;39.70;;;;;;4940389;29;20055;-86
2022/05/12 11:39:23;;;;;;;3.30;1.30;;;27.30;39.60;;;;;;4940212;29;20043;-85
2022/05/12 11:42:04;;;;;;;6.47;1.33;;;28.00;38.70;;;;;;4939991;29;20062;-85
2022/05/12 11:44:39;;;;;;;4.78;1.40;;;28.50;38.20;;;;;;4957371;29;20134;-84
2022/05/12 11:47:19;;;;;;;3.67;1.20;;;29.20;37.50;;;;;;4957017;29;20049;-87
2022/05/12 11:49:45;;;;;;;4.45;1.00;;;29.60;36.80;;;;;;4939839;29;20054;-84
2022/05/12 11:52:29;;;;;;;4.53;1.23;;;29.50;37.60;;;;;;4940098;29;20137;-85
2022/05/12 11:55:01;;;;;;;5.85;1.20;;;29.70;35.60;;;;;;4940200;29;20043;-86
2022/05/12 11:57:39;;;;;;;4.38;1.05;;;29.50;36.10;;;;;;4940198;29;20091;-86
2022/05/12 12:00:10;;;;;;;3.17;1.15;;;29.40;37.10;;;;;;4939768;29;20051;-85
2022/05/12 12:02:48;;;;;;;3.80;1.10;;;29.70;36.60;;;;;;4940033;29;20067;-88
2022/05/12 12:05:33;;;;;;;5.13;0.90;;;29.80;36.00;;;;;;4939569;29;20129;-86
2022/05/12 12:08:04;;;;;;;4.60;0.93;;;29.40;35.70;;;;;;4939900;29;20047;-86
2022/05/12 12:10:33;;;;;;;5.38;1.20;;;29.20;37.30;;;;;;4938700;29;20069;-84
2022/05/12 12:13:00;;;;;;;3.90;1.00;;;29.10;37.10;;;;;;4956833;29;20051;-84
2022/05/12 12:15:30;;;;;;;2.63;0.90;;;28.80;37.40;;;;;;4939967;29;20139;-84
2022/05/12 12:17:57;;;;;;;6.28;1.02;;;28.80;37.10;;;;;;4939720;29;20055;-84
2022/05/12 12:20:51;;;;;;;4.13;1.08;;;28.90;37.40;;;;;;4939719;29;20055;-84
2022/05/12 12:23:28;;;;;;;2.67;0.80;;;29.40;35.70;;;;;;4897160;29;20064;-84
2022/05/12 12:26:11;;;;;;;3.80;1.02;;;29.70;36.20;;;;;;4897472;29;20153;-84
2022/05/12 12:29:02;;;;;;;3.58;1.27;;;30.00;35.50;;;;;;4881764;29;20068;-85
2022/05/12 12:31:39;;;;;;;3.85;1.30;;;29.90;35.00;;;;;;4897320;29;20059;-86
2022/05/12 12:34:46;;;;;;;3.95;1.13;;;29.80;35.30;;;;;;4897033;29;20080;-85
2022/05/12 12:37:40;;;;;;;3.88;0.90;;;29.70;34.80;;;;;;4826069;29;20156;-84
2022/05/12 12:40:44;;;;;;;2.65;1.20;;;29.60;35.80;;;;;;4825975;29;20412;-84
2022/05/12 12:43:35;;;;;;;4.57;1.30;;;29.70;34.90;;;;;;4822944;29;20050;-85
2022/05/12 12:46:20;;;;;;;5.43;1.38;;;29.80;35.30;;;;;;4822689;29;20058;-84
2022/05/12 12:48:51;;;;;;;5.22;0.80;;;29.90;34.80;;;;;;4807987;29;20111;-84
2022/05/12 12:51:37;;;;;;;3.47;1.20;;;29.80;34.80;;;;;;4822991;29;20101;-84
2022/05/12 12:57:09;;;;;;;2.30;1.00;;;28.80;35.70;;;;;;4807715;29;20106;-85
2022/05/12 12:59:40;;;;;;;4.43;1.10;;;28.60;35.10;;;;;;4822562;29;20059;-95
2022/05/12 13:02:06;;;;;;;2.50;0.95;;;27.50;36.00;;;;;;4807637;29;20061;-87
2022/05/12 13:04:35;;;;;;;3.83;0.85;;;27.00;36.80;;;;;;4807507;29;20054;-88
2022/05/12 13:07:07;;;;;;;2.88;0.90;;;27.30;36.60;;;;;;4822833;29;20050;-86
2022/05/12 13:09:39;;;;;;;2.08;0.93;;;27.60;36.00;;;;;;4807179;29;20055;-86
2022/05/12 13:12:07;;;;;;;3.05;1.05;;;27.50;35.70;;;;;;4891990;29;20068;-92
2022/05/12 13:14:37;;;;;;;2.92;0.90;;;27.10;37.10;;;;;;4899487;29;20092;-84
2022/05/12 13:17:04;;;;;;;4.38;1.10;;;26.90;37.80;;;;;;4934769;29;20067;-85
2022/05/12 13:19:37;;;;;;;4.30;1.20;;;26.40;38.90;;;;;;4938513;29;20106;-85
2022/05/12 13:22:03;;;;;;;3.78;1.20;;;25.70;39.00;;;;;;4937914;29;20489;-86
2022/05/12 13:24:31;;;;;;;5.38;1.08;;;24.80;39.60;;;;;;4955660;29;20106;-83
2022/05/12 13:27:00;;;;;;;4.15;1.10;;;24.20;40.80;;;;;;4938518;29;20043;-84
2022/05/12 13:29:32;;;;;;;2.85;1.08;;;23.90;42.00;;;;;;4938249;29;20051;-84